sensor_id;sensor_type;location;lat;lon;timestamp;P1;durP1;ratioP1;P2;durP2;ratioP2
842;SDS011;407;48.884;9.126;2022-12-24T00:00:14;6.40;;;1.40;;
842;SDS011;407;48.884;9.126;2022-12-24T00:02:40;7.60;;;1.33;;
842;SDS011;407;48.884;9.126;2022-12-24T00:05:05;7.07;;;1.93;;
842;SDS011;407;48.884;9.126;2022-12-24T00:07:31;7.85;;;1.30;;
842;SDS011;407;48.884;9.126;2022-12-24T00:09:57;8.90;;;1.17;;
842;SDS011;407;48.884;9.126;2022-12-24T00:12:22;9.30;;;1.70;;
842;SDS011;407;48.884;9.126;2022-12-24T00:14:48;14.90;;;1.43;;
842;SDS011;407;48.884;9.126;2022-12-24T00:17:13;7.30;;;1.20;;
842;SDS011;407;48.884;9.126;2022-12-24T00:19:39;6.00;;;1.40;;
842;SDS011;407;48.884;9.126;2022-12-24T00:22:07;5.22;;;0.98;;
842;SDS011;407;48.884;9.126;2022-12-24T00:24:32;5.83;;;1.30;;
842;SDS011;407;48.884;9.126;2022-12-24T00:26:58;7.07;;;1.25;;
842;SDS011;407;48.884;9.126;2022-12-24T00:29:24;7.83;;;1.40;;
842;SDS011;407;48.884;9.126;2022-12-24T00:31:49;5.10;;;0.85;;
842;SDS011;407;48.884;9.126;2022-12-24T00:34:15;7.13;;;1.10;;
842;SDS011;407;48.884;9.126;2022-12-24T00:36:40;8.60;;;1.73;;
842;SDS011;407;48.884;9.126;2022-12-24T00:39:06;6.30;;;0.90;;
842;SDS011;407;48.884;9.126;2022-12-24T00:41:32;7.60;;;1.10;;
842;SDS011;407;48.884;9.126;2022-12-24T00:43:58;7.33;;;1.50;;
842;SDS011;407;48.884;9.126;2022-12-24T00:46:26;6.78;;;1.20;;
842;SDS011;407;48.884;9.126;2022-12-24T00:48:53;8.18;;;1.40;;
842;SDS011;407;48.884;9.126;2022-12-24T00:51:19;8.18;;;1.48;;
842;SDS011;407;48.884;9.126;2022-12-24T00:53:45;6.10;;;1.10;;
842;SDS011;407;48.884;9.126;2022-12-24T00:56:11;5.15;;;1.00;;
842;SDS011;407;48.884;9.126;2022-12-24T00:58:36;6.40;;;1.20;;
842;SDS011;407;48.884;9.126;2022-12-24T01:01:02;7.20;;;1.50;;
842;SDS011;407;48.884;9.126;2022-12-24T01:03:29;12.05;;;1.70;;
842;SDS011;407;48.884;9.126;2022-12-24T01:06:00;6.53;;;1.20;;
842;SDS011;407;48.884;9.126;2022-12-24T01:08:27;10.68;;;1.75;;
842;SDS011;407;48.884;9.126;2022-12-24T01:10:53;6.90;;;1.33;;
842;SDS011;407;48.884;9.126;2022-12-24T01:13:19;6.70;;;1.10;;
842;SDS011;407;48.884;9.126;2022-12-24T01:15:44;10.70;;;1.13;;
842;SDS011;407;48.884;9.126;2022-12-24T01:18:11;8.02;;;1.35;;
842;SDS011;407;48.884;9.126;2022-12-24T01:20:36;10.07;;;1.60;;
842;SDS011;407;48.884;9.126;2022-12-24T01:23:02;7.10;;;1.40;;
842;SDS011;407;48.884;9.126;2022-12-24T01:25:27;7.10;;;1.20;;
842;SDS011;407;48.884;9.126;2022-12-24T01:27:53;7.60;;;1.27;;
842;SDS011;407;48.884;9.126;2022-12-24T01:30:18;8.00;;;1.93;;
842;SDS011;407;48.884;9.126;2022-12-24T01:32:44;8.80;;;1.93;;
842;SDS011;407;48.884;9.126;2022-12-24T01:35:10;8.93;;;1.15;;
842;SDS011;407;48.884;9.126;2022-12-24T01:37:36;7.50;;;1.23;;
842;SDS011;407;48.884;9.126;2022-12-24T01:40:03;9.63;;;1.60;;
842;SDS011;407;48.884;9.126;2022-12-24T01:42:48;7.95;;;1.20;;
842;SDS011;407;48.884;9.126;2022-12-24T01:45:43;9.57;;;1.85;;
842;SDS011;407;48.884;9.126;2022-12-24T01:56:32;9.70;;;1.40;;
842;SDS011;407;48.884;9.126;2022-12-24T01:59:02;9.07;;;1.70;;
842;SDS011;407;48.884;9.126;2022-12-24T02:01:32;7.45;;;0.90;;
842;SDS011;407;48.884;9.126;2022-12-24T02:03:58;8.70;;;1.20;;
842;SDS011;407;48.884;9.126;2022-12-24T02:06:26;9.43;;;1.42;;
842;SDS011;407;48.884;9.126;2022-12-24T02:08:52;6.57;;;1.20;;
842;SDS011;407;48.884;9.126;2022-12-24T02:11:18;6.10;;;0.90;;
842;SDS011;407;48.884;9.126;2022-12-24T02:13:50;9.00;;;1.85;;
842;SDS011;407;48.884;9.126;2022-12-24T02:18:59;6.80;;;1.40;;
842;SDS011;407;48.884;9.126;2022-12-24T02:24:31;8.30;;;1.98;;
842;SDS011;407;48.884;9.126;2022-12-24T02:32:46;7.18;;;1.60;;
842;SDS011;407;48.884;9.126;2022-12-24T02:35:56;7.38;;;1.50;;
842;SDS011;407;48.884;9.126;2022-12-24T02:38:36;6.43;;;1.50;;
842;SDS011;407;48.884;9.126;2022-12-24T02:41:28;10.50;;;1.50;;
842;SDS011;407;48.884;9.126;2022-12-24T02:44:23;7.45;;;1.70;;
842;SDS011;407;48.884;9.126;2022-12-24T02:46:51;12.20;;;1.80;;
842;SDS011;407;48.884;9.126;2022-12-24T02:49:17;8.07;;;1.70;;
842;SDS011;407;48.884;9.126;2022-12-24T02:51:43;8.23;;;1.60;;
842;SDS011;407;48.884;9.126;2022-12-24T02:54:09;7.40;;;1.47;;
842;SDS011;407;48.884;9.126;2022-12-24T03:04:56;12.45;;;1.60;;
842;SDS011;407;48.884;9.126;2022-12-24T03:07:34;7.83;;;1.63;;
842;SDS011;407;48.884;9.126;2022-12-24T03:10:21;7.63;;;1.73;;
842;SDS011;407;48.884;9.126;2022-12-24T03:12:56;8.43;;;1.90;;
842;SDS011;407;48.884;9.126;2022-12-24T03:15:27;10.38;;;2.20;;
842;SDS011;407;48.884;9.126;2022-12-24T03:17:57;7.53;;;1.73;;
842;SDS011;407;48.884;9.126;2022-12-24T03:20:26;9.40;;;1.80;;
842;SDS011;407;48.884;9.126;2022-12-24T03:23:02;10.07;;;1.67;;
842;SDS011;407;48.884;9.126;2022-12-24T03:25:28;10.68;;;1.80;;
842;SDS011;407;48.884;9.126;2022-12-24T03:27:56;10.50;;;1.73;;
842;SDS011;407;48.884;9.126;2022-12-24T03:30:23;13.60;;;2.70;;
842;SDS011;407;48.884;9.126;2022-12-24T03:32:49;8.93;;;1.63;;
842;SDS011;407;48.884;9.126;2022-12-24T03:35:15;10.98;;;1.88;;
842;SDS011;407;48.884;9.126;2022-12-24T03:37:41;7.55;;;1.60;;
842;SDS011;407;48.884;9.126;2022-12-24T03:40:06;8.57;;;1.53;;
842;SDS011;407;48.884;9.126;2022-12-24T03:42:32;9.02;;;1.90;;
842;SDS011;407;48.884;9.126;2022-12-24T03:44:58;10.10;;;1.40;;
842;SDS011;407;48.884;9.126;2022-12-24T03:47:24;9.43;;;1.80;;
842;SDS011;407;48.884;9.126;2022-12-24T03:49:49;8.43;;;2.07;;
842;SDS011;407;48.884;9.126;2022-12-24T03:52:15;6.95;;;1.00;;
842;SDS011;407;48.884;9.126;2022-12-24T03:54:40;6.83;;;1.67;;
842;SDS011;407;48.884;9.126;2022-12-24T03:57:06;11.77;;;2.03;;
842;SDS011;407;48.884;9.126;2022-12-24T03:59:31;8.52;;;1.45;;
842;SDS011;407;48.884;9.126;2022-12-24T04:01:57;6.33;;;1.40;;
842;SDS011;407;48.884;9.126;2022-12-24T04:04:23;9.30;;;1.90;;
842;SDS011;407;48.884;9.126;2022-12-24T04:06:48;9.45;;;1.92;;
842;SDS011;407;48.884;9.126;2022-12-24T04:09:14;11.83;;;1.80;;
842;SDS011;407;48.884;9.126;2022-12-24T04:11:40;7.78;;;1.70;;
842;SDS011;407;48.884;9.126;2022-12-24T04:14:05;7.60;;;1.80;;
842;SDS011;407;48.884;9.126;2022-12-24T04:16:31;10.60;;;1.90;;
842;SDS011;407;48.884;9.126;2022-12-24T04:18:56;9.10;;;1.70;;
842;SDS011;407;48.884;9.126;2022-12-24T04:21:22;8.60;;;1.80;;
842;SDS011;407;48.884;9.126;2022-12-24T04:23:47;11.00;;;2.03;;
842;SDS011;407;48.884;9.126;2022-12-24T04:26:13;14.23;;;2.00;;
842;SDS011;407;48.884;9.126;2022-12-24T04:28:39;9.03;;;1.90;;
842;SDS011;407;48.884;9.126;2022-12-24T04:31:07;9.95;;;1.80;;
842;SDS011;407;48.884;9.126;2022-12-24T04:33:35;11.95;;;1.70;;
842;SDS011;407;48.884;9.126;2022-12-24T04:36:01;10.90;;;1.90;;
842;SDS011;407;48.884;9.126;2022-12-24T04:38:28;8.98;;;1.80;;
842;SDS011;407;48.884;9.126;2022-12-24T04:43:45;12.75;;;1.90;;
842;SDS011;407;48.884;9.126;2022-12-24T04:46:12;9.32;;;1.63;;
842;SDS011;407;48.884;9.126;2022-12-24T04:48:43;7.38;;;2.00;;
842;SDS011;407;48.884;9.126;2022-12-24T04:51:10;9.77;;;1.70;;
842;SDS011;407;48.884;9.126;2022-12-24T04:53:39;12.60;;;2.50;;
842;SDS011;407;48.884;9.126;2022-12-24T04:56:15;8.03;;;1.87;;
842;SDS011;407;48.884;9.126;2022-12-24T04:58:59;9.53;;;1.40;;
842;SDS011;407;48.884;9.126;2022-12-24T05:01:27;9.00;;;1.90;;
842;SDS011;407;48.884;9.126;2022-12-24T05:03:55;11.60;;;2.00;;
842;SDS011;407;48.884;9.126;2022-12-24T05:06:22;10.75;;;1.65;;
842;SDS011;407;48.884;9.126;2022-12-24T05:08:54;8.30;;;2.00;;
842;SDS011;407;48.884;9.126;2022-12-24T05:11:21;9.23;;;1.50;;
842;SDS011;407;48.884;9.126;2022-12-24T05:13:47;9.80;;;2.00;;
842;SDS011;407;48.884;9.126;2022-12-24T05:16:13;8.27;;;1.43;;
842;SDS011;407;48.884;9.126;2022-12-24T05:18:39;11.47;;;2.23;;
842;SDS011;407;48.884;9.126;2022-12-24T05:21:24;9.68;;;2.60;;
842;SDS011;407;48.884;9.126;2022-12-24T05:23:49;13.90;;;2.60;;
842;SDS011;407;48.884;9.126;2022-12-24T05:26:41;9.87;;;2.23;;
842;SDS011;407;48.884;9.126;2022-12-24T05:29:10;7.40;;;1.70;;
842;SDS011;407;48.884;9.126;2022-12-24T05:31:36;7.78;;;1.88;;
842;SDS011;407;48.884;9.126;2022-12-24T05:34:04;10.40;;;1.83;;
842;SDS011;407;48.884;9.126;2022-12-24T05:36:30;7.50;;;1.92;;
842;SDS011;407;48.884;9.126;2022-12-24T05:38:56;11.82;;;1.90;;
842;SDS011;407;48.884;9.126;2022-12-24T05:41:22;8.40;;;1.63;;
842;SDS011;407;48.884;9.126;2022-12-24T05:43:48;8.10;;;1.65;;
842;SDS011;407;48.884;9.126;2022-12-24T05:46:14;6.70;;;1.80;;
842;SDS011;407;48.884;9.126;2022-12-24T05:48:42;12.70;;;1.90;;
842;SDS011;407;48.884;9.126;2022-12-24T05:51:09;8.90;;;1.77;;
842;SDS011;407;48.884;9.126;2022-12-24T05:53:36;13.15;;;2.03;;
842;SDS011;407;48.884;9.126;2022-12-24T05:56:06;9.18;;;1.83;;
842;SDS011;407;48.884;9.126;2022-12-24T05:58:34;8.65;;;2.00;;
842;SDS011;407;48.884;9.126;2022-12-24T06:01:00;10.60;;;1.63;;
842;SDS011;407;48.884;9.126;2022-12-24T06:03:27;10.05;;;1.73;;
842;SDS011;407;48.884;9.126;2022-12-24T06:06:00;8.20;;;1.45;;
842;SDS011;407;48.884;9.126;2022-12-24T06:08:27;10.25;;;1.40;;
842;SDS011;407;48.884;9.126;2022-12-24T06:10:58;8.73;;;1.90;;
842;SDS011;407;48.884;9.126;2022-12-24T06:13:26;10.32;;;1.95;;
842;SDS011;407;48.884;9.126;2022-12-24T06:15:59;10.52;;;1.48;;
842;SDS011;407;48.884;9.126;2022-12-24T06:18:27;12.00;;;1.80;;
842;SDS011;407;48.884;9.126;2022-12-24T06:20:54;7.85;;;1.55;;
842;SDS011;407;48.884;9.126;2022-12-24T06:23:20;11.43;;;1.90;;
842;SDS011;407;48.884;9.126;2022-12-24T06:25:48;10.68;;;2.13;;
842;SDS011;407;48.884;9.126;2022-12-24T06:28:14;9.82;;;1.65;;
842;SDS011;407;48.884;9.126;2022-12-24T06:30:40;7.57;;;1.77;;
842;SDS011;407;48.884;9.126;2022-12-24T06:33:10;9.02;;;2.08;;
842;SDS011;407;48.884;9.126;2022-12-24T06:35:35;6.10;;;1.20;;
842;SDS011;407;48.884;9.126;2022-12-24T06:38:01;10.60;;;1.80;;
842;SDS011;407;48.884;9.126;2022-12-24T06:40:26;8.30;;;1.50;;
842;SDS011;407;48.884;9.126;2022-12-24T06:42:52;9.17;;;2.00;;
842;SDS011;407;48.884;9.126;2022-12-24T06:45:17;8.27;;;1.40;;
842;SDS011;407;48.884;9.126;2022-12-24T06:47:43;9.97;;;1.90;;
842;SDS011;407;48.884;9.126;2022-12-24T06:50:09;6.93;;;1.43;;
842;SDS011;407;48.884;9.126;2022-12-24T06:52:35;8.07;;;1.90;;
842;SDS011;407;48.884;9.126;2022-12-24T06:55:01;12.38;;;1.67;;
842;SDS011;407;48.884;9.126;2022-12-24T06:57:27;8.88;;;1.63;;
842;SDS011;407;48.884;9.126;2022-12-24T06:59:52;9.50;;;1.70;;
842;SDS011;407;48.884;9.126;2022-12-24T07:02:18;5.60;;;1.60;;
842;SDS011;407;48.884;9.126;2022-12-24T07:04:43;11.80;;;2.67;;
842;SDS011;407;48.884;9.126;2022-12-24T07:07:09;8.53;;;1.70;;
842;SDS011;407;48.884;9.126;2022-12-24T07:09:35;9.30;;;1.60;;
842;SDS011;407;48.884;9.126;2022-12-24T07:12:00;8.10;;;2.17;;
842;SDS011;407;48.884;9.126;2022-12-24T07:14:26;8.27;;;1.70;;
842;SDS011;407;48.884;9.126;2022-12-24T07:16:51;9.90;;;1.85;;
842;SDS011;407;48.884;9.126;2022-12-24T07:19:17;6.17;;;1.60;;
842;SDS011;407;48.884;9.126;2022-12-24T07:21:43;7.32;;;1.70;;
842;SDS011;407;48.884;9.126;2022-12-24T07:24:08;13.37;;;1.87;;
842;SDS011;407;48.884;9.126;2022-12-24T07:26:34;10.30;;;1.70;;
842;SDS011;407;48.884;9.126;2022-12-24T07:28:59;9.77;;;2.10;;
842;SDS011;407;48.884;9.126;2022-12-24T07:31:25;8.37;;;1.70;;
842;SDS011;407;48.884;9.126;2022-12-24T07:33:51;8.35;;;1.50;;
842;SDS011;407;48.884;9.126;2022-12-24T07:36:17;9.37;;;1.93;;
842;SDS011;407;48.884;9.126;2022-12-24T07:38:45;7.45;;;1.52;;
842;SDS011;407;48.884;9.126;2022-12-24T07:41:10;8.13;;;1.83;;
842;SDS011;407;48.884;9.126;2022-12-24T07:43:36;7.27;;;1.87;;
842;SDS011;407;48.884;9.126;2022-12-24T07:46:02;12.43;;;1.65;;
842;SDS011;407;48.884;9.126;2022-12-24T07:48:28;9.63;;;2.00;;
842;SDS011;407;48.884;9.126;2022-12-24T07:50:55;9.60;;;2.00;;
842;SDS011;407;48.884;9.126;2022-12-24T07:53:22;9.98;;;2.10;;
842;SDS011;407;48.884;9.126;2022-12-24T07:55:48;8.48;;;1.77;;
842;SDS011;407;48.884;9.126;2022-12-24T07:58:14;10.55;;;1.70;;
842;SDS011;407;48.884;9.126;2022-12-24T08:00:39;7.63;;;1.70;;
842;SDS011;407;48.884;9.126;2022-12-24T08:03:05;11.30;;;1.90;;
842;SDS011;407;48.884;9.126;2022-12-24T08:05:34;10.53;;;2.13;;
842;SDS011;407;48.884;9.126;2022-12-24T08:08:00;9.70;;;1.80;;
842;SDS011;407;48.884;9.126;2022-12-24T08:10:26;12.18;;;2.20;;
842;SDS011;407;48.884;9.126;2022-12-24T08:12:52;7.60;;;1.70;;
842;SDS011;407;48.884;9.126;2022-12-24T08:15:18;10.93;;;2.10;;
842;SDS011;407;48.884;9.126;2022-12-24T08:17:44;10.77;;;1.70;;
842;SDS011;407;48.884;9.126;2022-12-24T08:20:10;9.90;;;1.70;;
842;SDS011;407;48.884;9.126;2022-12-24T08:22:36;16.00;;;1.90;;
842;SDS011;407;48.884;9.126;2022-12-24T08:25:01;7.68;;;1.60;;
842;SDS011;407;48.884;9.126;2022-12-24T08:27:27;10.00;;;1.67;;
842;SDS011;407;48.884;9.126;2022-12-24T08:29:52;8.80;;;1.53;;
842;SDS011;407;48.884;9.126;2022-12-24T08:32:18;7.57;;;1.80;;
842;SDS011;407;48.884;9.126;2022-12-24T08:34:43;8.13;;;1.70;;
842;SDS011;407;48.884;9.126;2022-12-24T08:37:09;15.00;;;2.40;;
842;SDS011;407;48.884;9.126;2022-12-24T08:39:35;7.45;;;1.40;;
842;SDS011;407;48.884;9.126;2022-12-24T08:42:00;10.10;;;1.40;;
842;SDS011;407;48.884;9.126;2022-12-24T08:44:26;8.60;;;1.67;;
842;SDS011;407;48.884;9.126;2022-12-24T08:46:51;7.50;;;1.80;;
842;SDS011;407;48.884;9.126;2022-12-24T08:49:17;9.57;;;1.87;;
842;SDS011;407;48.884;9.126;2022-12-24T08:51:42;8.95;;;1.90;;
842;SDS011;407;48.884;9.126;2022-12-24T08:54:08;7.25;;;1.60;;
842;SDS011;407;48.884;9.126;2022-12-24T08:56:34;7.30;;;1.90;;
842;SDS011;407;48.884;9.126;2022-12-24T08:59:00;11.93;;;1.92;;
842;SDS011;407;48.884;9.126;2022-12-24T09:01:26;12.98;;;1.95;;
842;SDS011;407;48.884;9.126;2022-12-24T09:03:51;10.10;;;1.80;;
842;SDS011;407;48.884;9.126;2022-12-24T09:06:17;7.60;;;2.05;;
842;SDS011;407;48.884;9.126;2022-12-24T09:08:43;10.77;;;2.57;;
842;SDS011;407;48.884;9.126;2022-12-24T09:11:16;10.60;;;1.70;;
842;SDS011;407;48.884;9.126;2022-12-24T09:13:43;6.93;;;2.03;;
842;SDS011;407;48.884;9.126;2022-12-24T09:16:09;12.98;;;2.30;;
842;SDS011;407;48.884;9.126;2022-12-24T09:18:35;10.52;;;2.33;;
842;SDS011;407;48.884;9.126;2022-12-24T09:21:05;9.83;;;2.00;;
842;SDS011;407;48.884;9.126;2022-12-24T09:23:35;9.77;;;1.70;;
842;SDS011;407;48.884;9.126;2022-12-24T09:26:24;8.65;;;1.42;;
842;SDS011;407;48.884;9.126;2022-12-24T09:28:50;6.47;;;1.75;;
842;SDS011;407;48.884;9.126;2022-12-24T09:31:17;8.15;;;1.75;;
842;SDS011;407;48.884;9.126;2022-12-24T09:33:43;9.93;;;2.30;;
842;SDS011;407;48.884;9.126;2022-12-24T09:36:11;11.35;;;2.00;;
842;SDS011;407;48.884;9.126;2022-12-24T09:38:37;9.98;;;1.77;;
842;SDS011;407;48.884;9.126;2022-12-24T09:41:38;10.10;;;2.40;;
842;SDS011;407;48.884;9.126;2022-12-24T09:44:48;10.50;;;2.70;;
842;SDS011;407;48.884;9.126;2022-12-24T09:46:53;9.57;;;2.35;;
842;SDS011;407;48.884;9.126;2022-12-24T09:49:21;8.18;;;2.13;;
842;SDS011;407;48.884;9.126;2022-12-24T09:51:58;12.20;;;3.63;;
842;SDS011;407;48.884;9.126;2022-12-24T09:54:37;11.52;;;4.00;;
842;SDS011;407;48.884;9.126;2022-12-24T09:57:13;8.57;;;4.53;;
842;SDS011;407;48.884;9.126;2022-12-24T09:59:45;12.63;;;7.13;;
842;SDS011;407;48.884;9.126;2022-12-24T10:02:16;13.02;;;7.20;;
842;SDS011;407;48.884;9.126;2022-12-24T10:04:44;11.00;;;4.22;;
842;SDS011;407;48.884;9.126;2022-12-24T10:07:27;10.02;;;3.50;;
842;SDS011;407;48.884;9.126;2022-12-24T10:25:59;9.88;;;3.00;;
842;SDS011;407;48.884;9.126;2022-12-24T10:28:46;13.57;;;2.70;;
842;SDS011;407;48.884;9.126;2022-12-24T10:31:28;13.88;;;2.20;;
842;SDS011;407;48.884;9.126;2022-12-24T10:33:58;7.53;;;1.83;;
842;SDS011;407;48.884;9.126;2022-12-24T10:36:34;11.15;;;2.50;;
842;SDS011;407;48.884;9.126;2022-12-24T10:39:00;14.23;;;2.03;;
842;SDS011;407;48.884;9.126;2022-12-24T10:41:26;9.40;;;2.40;;
842;SDS011;407;48.884;9.126;2022-12-24T10:43:53;13.32;;;2.08;;
842;SDS011;407;48.884;9.126;2022-12-24T10:51:31;11.35;;;2.30;;
842;SDS011;407;48.884;9.126;2022-12-24T10:54:17;11.77;;;2.30;;
842;SDS011;407;48.884;9.126;2022-12-24T10:56:46;11.15;;;2.13;;
842;SDS011;407;48.884;9.126;2022-12-24T10:59:27;10.88;;;2.13;;
842;SDS011;407;48.884;9.126;2022-12-24T11:02:03;11.13;;;2.55;;
842;SDS011;407;48.884;9.126;2022-12-24T11:04:48;9.97;;;1.87;;
842;SDS011;407;48.884;9.126;2022-12-24T11:07:19;11.73;;;2.17;;
842;SDS011;407;48.884;9.126;2022-12-24T11:12:26;15.90;;;2.90;;
842;SDS011;407;48.884;9.126;2022-12-24T11:15:01;13.57;;;2.60;;
842;SDS011;407;48.884;9.126;2022-12-24T11:17:27;9.35;;;2.90;;
842;SDS011;407;48.884;9.126;2022-12-24T11:19:53;10.93;;;1.73;;
842;SDS011;407;48.884;9.126;2022-12-24T11:22:26;8.00;;;1.50;;
842;SDS011;407;48.884;9.126;2022-12-24T11:25:06;8.43;;;1.73;;
842;SDS011;407;48.884;9.126;2022-12-24T11:27:47;12.80;;;2.00;;
842;SDS011;407;48.884;9.126;2022-12-24T11:32:45;14.93;;;2.50;;
842;SDS011;407;48.884;9.126;2022-12-24T11:35:17;15.05;;;2.90;;
842;SDS011;407;48.884;9.126;2022-12-24T11:37:47;11.35;;;2.20;;
842;SDS011;407;48.884;9.126;2022-12-24T11:40:20;12.90;;;3.42;;
842;SDS011;407;48.884;9.126;2022-12-24T11:42:48;14.15;;;3.28;;
842;SDS011;407;48.884;9.126;2022-12-24T11:47:43;12.82;;;2.55;;
842;SDS011;407;48.884;9.126;2022-12-24T11:50:22;15.00;;;3.17;;
842;SDS011;407;48.884;9.126;2022-12-24T11:53:12;13.15;;;2.50;;
842;SDS011;407;48.884;9.126;2022-12-24T11:55:44;12.90;;;2.90;;
842;SDS011;407;48.884;9.126;2022-12-24T12:03:59;11.63;;;2.73;;
842;SDS011;407;48.884;9.126;2022-12-24T12:06:38;12.45;;;2.58;;
842;SDS011;407;48.884;9.126;2022-12-24T12:11:45;12.93;;;2.72;;
842;SDS011;407;48.884;9.126;2022-12-24T12:14:19;14.35;;;4.15;;
842;SDS011;407;48.884;9.126;2022-12-24T12:16:50;12.38;;;2.90;;
842;SDS011;407;48.884;9.126;2022-12-24T12:19:29;11.00;;;2.20;;
842;SDS011;407;48.884;9.126;2022-12-24T12:22:03;14.13;;;2.55;;
842;SDS011;407;48.884;9.126;2022-12-24T12:24:33;12.85;;;3.22;;
842;SDS011;407;48.884;9.126;2022-12-24T12:30:00;13.13;;;2.50;;
842;SDS011;407;48.884;9.126;2022-12-24T12:32:36;13.43;;;3.60;;
842;SDS011;407;48.884;9.126;2022-12-24T12:35:20;15.85;;;3.20;;
842;SDS011;407;48.884;9.126;2022-12-24T12:38:06;11.60;;;3.53;;
842;SDS011;407;48.884;9.126;2022-12-24T12:52:20;16.83;;;6.10;;
842;SDS011;407;48.884;9.126;2022-12-24T12:57:42;16.15;;;5.10;;
842;SDS011;407;48.884;9.126;2022-12-24T13:00:11;22.77;;;10.73;;
842;SDS011;407;48.884;9.126;2022-12-24T13:11:25;20.73;;;4.30;;
842;SDS011;407;48.884;9.126;2022-12-24T13:22:46;11.77;;;4.35;;
842;SDS011;407;48.884;9.126;2022-12-24T13:25:19;15.05;;;3.63;;
842;SDS011;407;48.884;9.126;2022-12-24T13:27:46;11.23;;;3.10;;
842;SDS011;407;48.884;9.126;2022-12-24T13:30:31;13.00;;;3.63;;
842;SDS011;407;48.884;9.126;2022-12-24T13:33:00;12.25;;;3.50;;
842;SDS011;407;48.884;9.126;2022-12-24T13:35:27;13.45;;;3.53;;
842;SDS011;407;48.884;9.126;2022-12-24T13:38:28;21.60;;;4.50;;
842;SDS011;407;48.884;9.126;2022-12-24T13:44:13;20.60;;;9.05;;
842;SDS011;407;48.884;9.126;2022-12-24T13:49:48;12.60;;;3.50;;
842;SDS011;407;48.884;9.126;2022-12-24T13:52:28;10.73;;;2.22;;
842;SDS011;407;48.884;9.126;2022-12-24T14:16:03;11.37;;;3.73;;
842;SDS011;407;48.884;9.126;2022-12-24T14:18:34;14.52;;;4.97;;
842;SDS011;407;48.884;9.126;2022-12-24T14:21:03;19.02;;;4.68;;
842;SDS011;407;48.884;9.126;2022-12-24T14:26:11;15.55;;;5.05;;
842;SDS011;407;48.884;9.126;2022-12-24T14:31:51;17.05;;;3.85;;
842;SDS011;407;48.884;9.126;2022-12-24T14:34:18;13.77;;;4.25;;
842;SDS011;407;48.884;9.126;2022-12-24T14:36:44;15.73;;;4.70;;
842;SDS011;407;48.884;9.126;2022-12-24T14:39:15;13.23;;;3.40;;
842;SDS011;407;48.884;9.126;2022-12-24T14:41:57;16.65;;;3.25;;
842;SDS011;407;48.884;9.126;2022-12-24T14:52:44;12.85;;;3.40;;
842;SDS011;407;48.884;9.126;2022-12-24T15:00:50;11.50;;;3.10;;
842;SDS011;407;48.884;9.126;2022-12-24T15:03:18;13.38;;;3.30;;
842;SDS011;407;48.884;9.126;2022-12-24T15:05:49;9.75;;;3.40;;
842;SDS011;407;48.884;9.126;2022-12-24T15:08:18;17.33;;;3.88;;
842;SDS011;407;48.884;9.126;2022-12-24T15:10:50;16.15;;;5.68;;
842;SDS011;407;48.884;9.126;2022-12-24T15:13:36;12.02;;;5.25;;
842;SDS011;407;48.884;9.126;2022-12-24T15:16:06;22.30;;;8.53;;
842;SDS011;407;48.884;9.126;2022-12-24T15:18:34;27.13;;;10.45;;
842;SDS011;407;48.884;9.126;2022-12-24T15:21:04;21.88;;;6.57;;
842;SDS011;407;48.884;9.126;2022-12-24T15:23:35;15.27;;;5.80;;
842;SDS011;407;48.884;9.126;2022-12-24T15:26:13;23.13;;;7.73;;
842;SDS011;407;48.884;9.126;2022-12-24T15:28:51;15.98;;;5.35;;
842;SDS011;407;48.884;9.126;2022-12-24T15:31:22;13.70;;;4.60;;
842;SDS011;407;48.884;9.126;2022-12-24T15:33:50;17.67;;;4.63;;
842;SDS011;407;48.884;9.126;2022-12-24T15:36:23;12.85;;;4.05;;
842;SDS011;407;48.884;9.126;2022-12-24T15:38:51;19.17;;;5.10;;
842;SDS011;407;48.884;9.126;2022-12-24T15:41:23;13.17;;;3.50;;
842;SDS011;407;48.884;9.126;2022-12-24T15:43:51;11.50;;;3.55;;
842;SDS011;407;48.884;9.126;2022-12-24T15:46:25;12.48;;;3.03;;
842;SDS011;407;48.884;9.126;2022-12-24T15:48:53;14.90;;;3.50;;
842;SDS011;407;48.884;9.126;2022-12-24T15:51:30;12.80;;;3.50;;
842;SDS011;407;48.884;9.126;2022-12-24T15:54:05;10.02;;;3.13;;
842;SDS011;407;48.884;9.126;2022-12-24T15:56:36;13.70;;;3.00;;
842;SDS011;407;48.884;9.126;2022-12-24T16:04:46;11.50;;;2.97;;
842;SDS011;407;48.884;9.126;2022-12-24T16:07:22;15.13;;;3.80;;
842;SDS011;407;48.884;9.126;2022-12-24T16:09:49;16.63;;;3.60;;
842;SDS011;407;48.884;9.126;2022-12-24T16:12:16;12.82;;;3.92;;
842;SDS011;407;48.884;9.126;2022-12-24T16:14:46;15.13;;;3.80;;
842;SDS011;407;48.884;9.126;2022-12-24T16:17:16;16.60;;;4.32;;
842;SDS011;407;48.884;9.126;2022-12-24T16:19:54;20.83;;;7.05;;
842;SDS011;407;48.884;9.126;2022-12-24T16:22:22;94.22;;;33.08;;
842;SDS011;407;48.884;9.126;2022-12-24T16:24:59;68.67;;;24.20;;
842;SDS011;407;48.884;9.126;2022-12-24T16:27:39;37.78;;;13.25;;
842;SDS011;407;48.884;9.126;2022-12-24T16:30:05;25.17;;;9.50;;
842;SDS011;407;48.884;9.126;2022-12-24T16:32:32;12.53;;;3.33;;
842;SDS011;407;48.884;9.126;2022-12-24T16:35:00;13.55;;;3.38;;
842;SDS011;407;48.884;9.126;2022-12-24T16:37:27;15.18;;;3.97;;
842;SDS011;407;48.884;9.126;2022-12-24T16:39:53;11.70;;;3.60;;
842;SDS011;407;48.884;9.126;2022-12-24T16:42:19;12.82;;;3.55;;
842;SDS011;407;48.884;9.126;2022-12-24T16:45:03;10.43;;;3.15;;
842;SDS011;407;48.884;9.126;2022-12-24T16:47:30;9.80;;;3.33;;
842;SDS011;407;48.884;9.126;2022-12-24T16:49:58;11.50;;;3.10;;
842;SDS011;407;48.884;9.126;2022-12-24T16:52:25;18.75;;;3.80;;
842;SDS011;407;48.884;9.126;2022-12-24T16:54:57;13.60;;;4.15;;
842;SDS011;407;48.884;9.126;2022-12-24T16:57:24;12.80;;;3.85;;
842;SDS011;407;48.884;9.126;2022-12-24T16:59:50;17.13;;;4.67;;
842;SDS011;407;48.884;9.126;2022-12-24T17:02:17;9.63;;;4.13;;
842;SDS011;407;48.884;9.126;2022-12-24T17:04:45;15.30;;;4.70;;
842;SDS011;407;48.884;9.126;2022-12-24T17:07:11;16.00;;;5.00;;
842;SDS011;407;48.884;9.126;2022-12-24T17:09:38;14.10;;;4.70;;
842;SDS011;407;48.884;9.126;2022-12-24T17:12:04;14.27;;;4.90;;
842;SDS011;407;48.884;9.126;2022-12-24T17:14:30;20.33;;;5.75;;
842;SDS011;407;48.884;9.126;2022-12-24T17:16:56;16.92;;;5.22;;
842;SDS011;407;48.884;9.126;2022-12-24T17:19:21;19.23;;;5.35;;
842;SDS011;407;48.884;9.126;2022-12-24T17:21:47;12.93;;;4.40;;
842;SDS011;407;48.884;9.126;2022-12-24T17:24:13;16.13;;;4.97;;
842;SDS011;407;48.884;9.126;2022-12-24T17:26:38;17.07;;;4.70;;
842;SDS011;407;48.884;9.126;2022-12-24T17:29:06;12.13;;;3.93;;
842;SDS011;407;48.884;9.126;2022-12-24T17:31:31;11.95;;;4.40;;
842;SDS011;407;48.884;9.126;2022-12-24T17:33:57;16.17;;;4.50;;
842;SDS011;407;48.884;9.126;2022-12-24T17:36:23;12.73;;;3.57;;
842;SDS011;407;48.884;9.126;2022-12-24T17:38:49;10.38;;;4.10;;
842;SDS011;407;48.884;9.126;2022-12-24T17:41:16;15.07;;;4.43;;
842;SDS011;407;48.884;9.126;2022-12-24T17:43:43;15.52;;;4.80;;
842;SDS011;407;48.884;9.126;2022-12-24T17:46:10;18.85;;;5.10;;
842;SDS011;407;48.884;9.126;2022-12-24T17:48:39;12.80;;;4.90;;
842;SDS011;407;48.884;9.126;2022-12-24T17:51:05;15.07;;;5.63;;
842;SDS011;407;48.884;9.126;2022-12-24T17:53:33;16.35;;;5.47;;
842;SDS011;407;48.884;9.126;2022-12-24T17:56:00;17.48;;;6.00;;
842;SDS011;407;48.884;9.126;2022-12-24T17:58:27;14.23;;;5.25;;
842;SDS011;407;48.884;9.126;2022-12-24T18:00:53;19.40;;;5.80;;
842;SDS011;407;48.884;9.126;2022-12-24T18:03:19;13.40;;;5.40;;
842;SDS011;407;48.884;9.126;2022-12-24T18:05:45;16.77;;;5.50;;
842;SDS011;407;48.884;9.126;2022-12-24T18:08:11;17.17;;;5.10;;
842;SDS011;407;48.884;9.126;2022-12-24T18:10:36;13.47;;;4.53;;
842;SDS011;407;48.884;9.126;2022-12-24T18:13:02;21.73;;;5.20;;
842;SDS011;407;48.884;9.126;2022-12-24T18:15:28;19.67;;;5.60;;
842;SDS011;407;48.884;9.126;2022-12-24T18:17:58;14.38;;;4.22;;
842;SDS011;407;48.884;9.126;2022-12-24T18:20:23;14.93;;;4.80;;
842;SDS011;407;48.884;9.126;2022-12-24T18:22:49;12.60;;;4.55;;
842;SDS011;407;48.884;9.126;2022-12-24T18:25:15;14.40;;;4.63;;